Time;durP1;ratioP1;P1;durP2;ratioP2;P2;SDS_P1;SDS_P2;PMS_P1;PMS_P2;Temp;Humidity;BMP_temperature;BMP_pressure;BME280_temperature;BME280_humidity;BME280_pressure;Samples;Min_cycle;Max_cycle;Signal;HPM_P1;HPM_P2
2024/02/29 00:02:23;;;;;;;22.70;2.80;;;;;;;2.64;100.00;101058.02;106825;1270;58963;-55
2024/02/29 00:04:50;;;;;;;8.60;1.70;;;;;;;2.65;100.00;101053.41;105176;1271;59324;-58
2024/02/29 00:07:18;;;;;;;13.70;2.40;;;;;;;2.65;100.00;101054.66;105323;1270;71699;-56
2024/02/29 00:09:45;;;;;;;16.40;2.40;;;;;;;2.66;100.00;101063.88;105270;1270;67551;-57
2024/02/29 00:12:12;;;;;;;16.20;1.70;;;;;;;2.68;100.00;101060.88;105208;1280;72730;-55
2024/02/29 00:14:41;;;;;;;15.20;2.90;;;;;;;2.71;100.00;101060.37;105303;1270;167998;-54
2024/02/29 00:17:10;;;;;;;11.60;2.00;;;;;;;2.74;100.00;101057.89;106121;1267;60203;-55
2024/02/29 00:19:38;;;;;;;9.50;1.50;;;;;;;2.77;100.00;101055.61;105404;1263;71448;-55
2024/02/29 00:22:05;;;;;;;12.60;1.50;;;;;;;2.80;100.00;101054.20;105475;1268;67446;-55
2024/02/29 00:24:33;;;;;;;11.10;1.50;;;;;;;2.82;100.00;101051.36;105599;1263;73012;-55
2024/02/29 00:27:01;;;;;;;13.70;1.30;;;;;;;2.82;100.00;101049.59;105417;1267;60634;-56
2024/02/29 00:29:29;;;;;;;9.70;1.60;;;;;;;2.83;100.00;101048.70;105536;1267;61254;-56
2024/02/29 00:32:02;;;;;;;8.30;1.40;;;;;;;2.84;100.00;101050.66;105525;1276;71316;-56
2024/02/29 00:34:30;;;;;;;9.80;1.60;;;;;;;2.85;100.00;101046.59;105497;1266;66141;-56
2024/02/29 00:36:57;;;;;;;14.30;1.90;;;;;;;2.85;100.00;101043.41;105506;1267;71457;-56
2024/02/29 00:39:24;;;;;;;9.10;1.60;;;;;;;2.86;100.00;101041.11;105520;1261;59262;-56
2024/02/29 00:41:52;;;;;;;8.80;1.40;;;;;;;2.86;100.00;101038.80;105564;1267;61197;-55
2024/02/29 00:44:19;;;;;;;14.60;1.50;;;;;;;2.87;100.00;101040.40;105464;1261;73592;-57
2024/02/29 00:46:47;;;;;;;7.70;2.60;;;;;;;2.86;100.00;101040.58;105598;1267;66849;-57
2024/02/29 00:49:14;;;;;;;12.90;1.70;;;;;;;2.84;100.00;101040.55;105614;1274;71749;-55
2024/02/29 00:51:42;;;;;;;11.50;2.30;;;;;;;2.83;100.00;101036.48;105630;1276;62012;-57
2024/02/29 00:54:10;;;;;;;6.70;1.30;;;;;;;2.81;100.00;101029.20;105500;1266;59704;-55
2024/02/29 00:56:37;;;;;;;13.20;1.30;;;;;;;2.81;100.00;101027.06;105717;1261;71909;-56
2024/02/29 00:59:04;;;;;;;11.00;1.30;;;;;;;2.81;100.00;101027.23;105477;1268;65567;-56
2024/02/29 01:01:32;;;;;;;13.80;1.40;;;;;;;2.82;100.00;101024.05;105586;1261;73192;-55
2024/02/29 01:03:59;;;;;;;9.30;1.40;;;;;;;2.84;100.00;101023.01;105754;1264;60433;-54
2024/02/29 01:06:27;;;;;;;13.70;1.20;;;;;;;2.86;100.00;101018.77;105422;1264;59778;-56
2024/02/29 01:08:54;;;;;;;7.70;1.20;;;;;;;2.88;100.00;101013.64;105571;1276;73123;-55
2024/02/29 01:11:22;;;;;;;9.30;1.30;;;;;;;2.90;100.00;101012.91;105786;1264;65643;-56
2024/02/29 01:13:49;;;;;;;13.80;1.50;;;;;;;2.91;100.00;101010.98;105869;1264;72923;-56
2024/02/29 01:16:16;;;;;;;8.00;1.20;;;;;;;2.93;100.00;101011.87;105874;1263;59689;-56
2024/02/29 01:18:44;;;;;;;8.30;1.80;;;;;;;2.94;100.00;101012.59;105854;1269;60928;-55
2024/02/29 01:21:11;;;;;;;7.80;1.50;;;;;;;2.94;100.00;101010.63;105872;1257;73518;-56
2024/02/29 01:23:39;;;;;;;13.70;1.60;;;;;;;2.94;100.00;101016.66;105764;1264;65949;-56
2024/02/29 01:26:06;;;;;;;11.00;2.00;;;;;;;2.94;100.00;101013.82;105751;1267;72748;-55
2024/02/29 01:28:34;;;;;;;11.70;1.20;;;;;;;2.94;100.00;101015.59;105866;1262;59818;-57
2024/02/29 01:31:02;;;;;;;14.50;1.60;;;;;;;2.92;100.00;101010.63;105919;1260;60684;-55
2024/02/29 01:33:29;;;;;;;11.10;1.80;;;;;;;2.92;100.00;101013.29;106107;1262;71684;-55
2024/02/29 01:35:57;;;;;;;11.40;1.60;;;;;;;2.91;100.00;101011.50;106003;1261;65884;-56
2024/02/29 01:38:24;;;;;;;13.80;2.70;;;;;;;2.91;100.00;101013.80;105944;1260;72867;-55
2024/02/29 01:40:52;;;;;;;6.70;1.20;;;;;;;2.90;100.00;101013.09;105866;1258;59794;-55
2024/02/29 01:43:19;;;;;;;11.50;1.60;;;;;;;2.89;100.00;101008.84;105912;1258;60607;-56
2024/02/29 01:45:48;;;;;;;11.00;2.80;;;;;;;2.89;100.00;101008.31;105904;1263;73030;-57
2024/02/29 01:48:16;;;;;;;5.60;1.20;;;;;;;2.89;100.00;101008.49;106054;1256;66742;-56
2024/02/29 01:50:43;;;;;;;11.50;1.20;;;;;;;2.88;100.00;101008.84;105790;1258;72499;-55
2024/02/29 01:53:10;;;;;;;14.20;1.20;;;;;;;2.87;100.00;101009.20;105918;1260;59651;-57
2024/02/29 01:55:37;;;;;;;11.10;1.60;;;;;;;2.86;100.00;101003.52;105719;1259;60667;-57
2024/02/29 01:58:05;;;;;;;15.40;1.50;;;;;;;2.86;100.00;101003.16;105668;1264;75566;-55
2024/02/29 02:00:33;;;;;;;14.30;2.10;;;;;;;2.87;100.00;101001.75;105884;1257;66208;-56
2024/02/29 02:03:00;;;;;;;12.80;1.50;;;;;;;2.88;100.00;101001.39;106023;1260;72632;-56
2024/02/29 02:05:28;;;;;;;11.00;1.20;;;;;;;2.90;100.00;101000.15;105840;1261;59640;-56
2024/02/29 02:07:55;;;;;;;11.20;1.00;;;;;;;2.92;100.00;100996.96;105872;1259;60105;-56
2024/02/29 02:10:22;;;;;;;10.80;1.90;;;;;;;2.95;100.00;100995.03;105834;1272;72120;-55
2024/02/29 02:12:50;;;;;;;9.70;1.50;;;;;;;2.96;100.00;100992.91;105886;1260;67616;-56
2024/02/29 02:15:17;;;;;;;8.40;1.10;;;;;;;2.97;100.00;100991.68;105887;1264;73815;-55
2024/02/29 02:17:44;;;;;;;11.00;1.80;;;;;;;2.96;100.00;100992.03;105895;1260;60146;-57
2024/02/29 02:20:15;;;;;;;12.50;1.30;;;;;;;2.96;100.00;100995.75;105788;1263;59590;-55
2024/02/29 02:22:43;;;;;;;8.00;1.00;;;;;;;2.95;100.00;101000.89;108768;1257;71849;-55
2024/02/29 02:25:10;;;;;;;10.80;1.30;;;;;;;2.94;100.00;101000.17;108325;1259;66812;-56
2024/02/29 02:27:41;;;;;;;12.20;1.50;;;;;;;2.92;100.00;101000.86;105873;1273;73576;-55
2024/02/29 02:30:08;;;;;;;10.80;1.30;;;;;;;2.89;100.00;100996.61;108033;1259;59806;-55
2024/02/29 02:32:36;;;;;;;10.00;1.30;;;;;;;2.87;100.00;100997.85;107270;1259;60499;-55
2024/02/29 02:35:04;;;;;;;9.70;1.30;;;;;;;2.84;100.00;100996.42;108845;1257;72855;-56
2024/02/29 02:37:32;;;;;;;12.20;1.20;;;;;;;2.81;100.00;100995.34;107249;1262;67015;-54
2024/02/29 02:39:59;;;;;;;12.20;2.10;;;;;;;2.80;100.00;100990.56;105854;1264;72730;-55
2024/02/29 02:42:27;;;;;;;11.90;1.10;;;;;;;2.79;100.00;100986.13;105938;1262;60939;-54
2024/02/29 02:44:54;;;;;;;16.60;1.30;;;;;;;2.77;100.00;100990.02;105848;1264;60523;-55
2024/02/29 02:47:21;;;;;;;15.30;1.20;;;;;;;2.76;100.00;100988.07;105909;1260;73456;-55
2024/02/29 02:49:49;;;;;;;9.50;1.50;;;;;;;2.76;100.00;100990.36;108751;1256;65626;-56
2024/02/29 02:52:16;;;;;;;9.00;1.10;;;;;;;2.76;100.00;100992.14;108804;1259;72490;-56
2024/02/29 02:54:43;;;;;;;8.50;1.80;;;;;;;2.77;100.00;100992.32;108719;1257;58398;-55
2024/02/29 02:57:11;;;;;;;12.20;1.50;;;;;;;2.77;100.00;100996.75;108789;1260;62312;-57
2024/02/29 02:59:38;;;;;;;9.10;1.30;;;;;;;2.77;100.00;100991.96;106517;1262;71389;-57
2024/02/29 03:02:05;;;;;;;11.60;1.30;;;;;;;2.75;100.00;100987.70;105811;1258;67338;-57
2024/02/29 03:04:33;;;;;;;8.80;1.10;;;;;;;2.73;100.00;100983.79;105861;1257;73009;-57
2024/02/29 03:07:00;;;;;;;10.90;1.40;;;;;;;2.71;100.00;100986.46;105960;1257;60747;-57
2024/02/29 03:09:27;;;;;;;7.10;1.50;;;;;;;2.68;100.00;100986.98;105875;1264;59682;-57
2024/02/29 03:11:55;;;;;;;7.70;1.50;;;;;;;2.64;100.00;100987.85;105885;1262;73134;-57
2024/02/29 03:14:22;;;;;;;19.40;1.70;;;;;;;2.61;100.00;100985.54;105805;1257;66767;-57
2024/02/29 03:16:49;;;;;;;11.40;1.50;;;;;;;2.58;100.00;100982.33;105784;1258;72859;-57
2024/02/29 03:19:17;;;;;;;12.70;1.60;;;;;;;2.54;100.00;100978.78;105886;1258;59659;-57
2024/02/29 03:21:44;;;;;;;14.60;1.90;;;;;;;2.50;100.00;100974.14;105862;1257;59596;-57
2024/02/29 03:24:11;;;;;;;9.40;1.50;;;;;;;2.45;100.00;100966.70;105905;1257;73119;-57
2024/02/29 03:26:39;;;;;;;5.30;1.30;;;;;;;2.42;100.00;100970.22;105794;1263;66046;-57
2024/02/29 03:29:07;;;;;;;10.20;1.20;;;;;;;2.39;100.00;100968.95;105785;1260;72771;-57
2024/02/29 03:31:34;;;;;;;19.10;1.90;;;;;;;2.38;100.00;100970.04;105896;1257;60903;-57
2024/02/29 03:34:02;;;;;;;7.70;1.00;;;;;;;2.38;100.00;100970.04;105870;1261;59689;-57
2024/02/29 03:36:30;;;;;;;9.10;1.20;;;;;;;2.38;100.00;100973.05;106359;1264;73092;-57
2024/02/29 03:38:57;;;;;;;16.30;1.80;;;;;;;2.38;100.00;100969.33;105814;1258;66789;-57
2024/02/29 03:41:25;;;;;;;12.70;1.40;;;;;;;2.38;100.00;100971.63;105898;1257;73555;-57
2024/02/29 03:43:52;;;;;;;15.40;1.80;;;;;;;2.37;100.00;100974.12;105963;1263;59712;-57
2024/02/29 03:46:20;;;;;;;12.40;1.90;;;;;;;2.37;100.00;100967.55;105899;1261;59829;-57
2024/02/29 03:48:47;;;;;;;11.80;1.50;;;;;;;2.37;100.00;100969.33;105901;1262;71834;-57
2024/02/29 03:51:16;;;;;;;15.00;3.50;;;;;;;2.34;100.00;100968.77;106587;1257;65907;-57
2024/02/29 03:53:44;;;;;;;7.90;2.20;;;;;;;2.33;100.00;100966.10;106286;1259;72663;-57
2024/02/29 03:56:12;;;;;;;12.80;2.10;;;;;;;2.29;100.00;100969.64;105891;1259;59712;-57
2024/02/29 03:58:39;;;;;;;11.70;2.30;;;;;;;2.25;100.00;100974.58;105899;1254;59592;-57
2024/02/29 04:01:12;;;;;;;12.80;2.60;;;;;;;2.23;100.00;100974.20;105912;1254;73217;-57
2024/02/29 04:03:40;;;;;;;13.10;2.60;;;;;;;2.19;100.00;100975.98;106166;1263;65780;-57
2024/02/29 04:06:07;;;;;;;7.50;1.40;;;;;;;2.15;100.00;100973.98;106164;1258;71478;-57
2024/02/29 04:08:35;;;;;;;13.20;1.50;;;;;;;2.12;100.00;100980.01;105981;1259;61277;-57
2024/02/29 04:11:03;;;;;;;12.70;2.20;;;;;;;2.09;100.00;100984.77;105966;1254;60531;-57
2024/02/29 04:13:30;;;;;;;6.90;1.20;;;;;;;2.07;100.00;100986.70;105999;1256;74299;-57
2024/02/29 04:15:57;;;;;;;9.60;1.10;;;;;;;2.05;100.00;100988.10;106093;1258;68096;-57
2024/02/29 04:18:25;;;;;;;9.70;1.90;;;;;;;2.04;100.00;100995.52;105980;1257;74870;-59
2024/02/29 04:20:52;;;;;;;11.70;2.10;;;;;;;2.03;100.00;100994.83;106012;1254;60937;-57
2024/02/29 04:23:19;;;;;;;17.60;2.10;;;;;;;2.03;100.00;100992.89;106013;1260;60533;-57
2024/02/29 04:25:46;;;;;;;10.00;1.30;;;;;;;2.02;100.00;100991.81;106078;1259;72584;-57
2024/02/29 04:28:14;;;;;;;5.30;1.40;;;;;;;2.04;100.00;100992.89;105919;1259;66997;-57
2024/02/29 04:30:42;;;;;;;6.70;1.80;;;;;;;2.04;100.00;100997.48;106546;1257;71485;-58
2024/02/29 04:33:11;;;;;;;10.40;1.80;;;;;;;2.03;100.00;100991.64;106114;1258;60485;-57
2024/02/29 04:35:39;;;;;;;7.80;1.30;;;;;;;2.00;100.00;100991.97;105997;1264;60438;-59
2024/02/29 04:38:06;;;;;;;9.10;1.70;;;;;;;1.98;100.00;100990.36;105812;1260;73879;-59
2024/02/29 04:40:34;;;;;;;10.50;1.50;;;;;;;1.95;100.00;100988.05;106036;1259;65665;-59
2024/02/29 04:43:01;;;;;;;12.80;1.70;;;;;;;1.92;100.00;100984.65;105941;1259;73175;-59
2024/02/29 04:45:29;;;;;;;5.30;1.50;;;;;;;1.88;100.00;100983.56;106185;1255;60546;-60
2024/02/29 04:47:57;;;;;;;13.00;2.20;;;;;;;1.85;100.00;100981.61;106161;1259;60537;-59
2024/02/29 04:50:24;;;;;;;10.80;1.60;;;;;;;1.81;100.00;100982.64;106303;1256;74239;-60
2024/02/29 04:52:52;;;;;;;8.70;1.50;;;;;;;1.79;100.00;100984.57;105999;1254;68774;-59
2024/02/29 04:55:19;;;;;;;9.80;1.60;;;;;;;1.77;100.00;100981.21;105999;1254;74633;-59
2024/02/29 04:57:46;;;;;;;9.00;2.00;;;;;;;1.76;100.00;100982.98;106005;1257;60412;-59
2024/02/29 05:00:14;;;;;;;10.30;1.30;;;;;;;1.76;100.00;100987.21;106765;1254;62158;-60
2024/02/29 05:02:42;;;;;;;12.20;1.40;;;;;;;1.77;100.00;100984.40;106533;1256;73944;-60
2024/02/29 05:05:11;;;;;;;15.30;1.60;;;;;;;1.80;100.00;100989.00;106009;1258;67148;-59
2024/02/29 05:07:39;;;;;;;14.60;1.70;;;;;;;1.84;100.00;100989.75;106046;1254;73090;-60
2024/02/29 05:10:07;;;;;;;16.20;1.40;;;;;;;1.89;100.00;100988.17;106024;1259;61740;-60
2024/02/29 05:12:35;;;;;;;5.50;1.40;;;;;;;1.94;100.00;100986.09;106070;1259;60543;-59
2024/02/29 05:15:03;;;;;;;13.90;1.90;;;;;;;1.99;100.00;100984.35;109007;1254;73671;-57
2024/02/29 05:17:30;;;;;;;8.40;1.50;;;;;;;2.06;100.00;100984.21;106506;1254;65929;-58
2024/02/29 05:19:58;;;;;;;14.10;1.90;;;;;;;2.12;100.00;100983.71;106185;1254;70349;-57
2024/02/29 05:22:26;;;;;;;9.70;1.40;;;;;;;2.14;100.00;100983.90;108937;1254;59265;-59
2024/02/29 05:24:55;;;;;;;12.50;2.00;;;;;;;2.16;100.00;100988.87;109064;1253;58855;-58
2024/02/29 05:27:29;;;;;;;11.80;1.50;;;;;;;2.17;100.00;100991.90;108943;1254;73860;-58
2024/02/29 05:29:57;;;;;;;11.30;2.10;;;;;;;2.18;100.00;100986.06;109140;1253;65731;-58
2024/02/29 05:32:24;;;;;;;10.90;1.60;;;;;;;2.19;100.00;100990.84;108922;1254;71437;-58
2024/02/29 05:34:51;;;;;;;11.20;1.40;;;;;;;2.18;100.00;100992.79;108920;1253;58474;-58
2024/02/29 05:37:19;;;;;;;13.10;1.60;;;;;;;2.18;100.00;100994.20;108964;1256;58785;-58
2024/02/29 05:39:46;;;;;;;9.40;1.40;;;;;;;2.18;100.00;100998.27;109066;1254;72316;-58
2024/02/29 05:42:13;;;;;;;9.40;2.10;;;;;;;2.18;100.00;101001.11;108919;1254;66770;-58
2024/02/29 05:44:41;;;;;;;6.90;1.60;;;;;;;2.21;100.00;101000.60;108839;1254;72458;-57
2024/02/29 05:47:09;;;;;;;13.70;1.10;;;;;;;2.26;100.00;101003.81;108869;1254;61093;-57
2024/02/29 05:49:36;;;;;;;8.90;1.50;;;;;;;2.35;100.00;101005.27;108916;1256;60096;-57
2024/02/29 05:52:03;;;;;;;9.20;1.50;;;;;;;2.43;100.00;101004.07;109114;1254;73938;-57
2024/02/29 05:54:31;;;;;;;15.90;2.20;;;;;;;2.50;100.00;101004.27;108829;1254;70035;-57
2024/02/29 05:56:58;;;;;;;16.40;2.10;;;;;;;2.55;100.00;101002.52;109017;1254;70387;-57
2024/02/29 05:59:30;;;;;;;8.20;1.90;;;;;;;2.59;100.00;101002.90;108817;1254;60847;-57
2024/02/29 06:01:58;;;;;;;11.30;2.30;;;;;;;2.65;100.00;100999.02;106449;1254;60463;-56
2024/02/29 06:04:26;;;;;;;6.50;1.80;;;;;;;2.70;100.00;101003.30;106541;1259;71739;-56
2024/02/29 06:06:53;;;;;;;10.00;2.40;;;;;;;2.76;100.00;101009.69;106262;1254;67450;-57
2024/02/29 06:09:21;;;;;;;10.10;2.20;;;;;;;2.82;100.00;101012.55;106225;1257;73592;-57
2024/02/29 06:11:48;;;;;;;12.90;2.00;;;;;;;2.88;100.00;101016.11;106082;1259;61406;-57
2024/02/29 06:14:17;;;;;;;9.90;2.20;;;;;;;2.96;100.00;101013.83;106127;1255;60500;-56
2024/02/29 06:16:44;;;;;;;10.40;1.90;;;;;;;3.04;100.00;101010.30;105996;1259;73822;-56
2024/02/29 06:19:11;;;;;;;13.20;2.20;;;;;;;3.12;100.00;101012.61;106016;1254;66327;-56
2024/02/29 06:21:39;;;;;;;11.00;2.20;;;;;;;3.21;100.00;101017.07;106194;1256;70470;-57
2024/02/29 06:24:07;;;;;;;12.20;2.60;;;;;;;3.29;100.00;101024.54;106057;1259;60735;-56
2024/02/29 06:26:35;;;;;;;11.00;2.10;;;;;;;3.38;100.00;101027.56;106062;1254;60526;-57
2024/02/29 06:29:02;;;;;;;10.60;1.80;;;;;;;3.47;100.00;101029.17;106038;1254;73260;-56
2024/02/29 06:31:29;;;;;;;8.20;2.10;;;;;;;3.55;100.00;101027.93;106057;1264;65052;-56
2024/02/29 06:33:57;;;;;;;18.30;2.00;;;;;;;3.65;100.00;101029.00;105915;1259;71500;-56
2024/02/29 06:36:25;;;;;;;11.30;1.80;;;;;;;3.75;100.00;101028.47;106286;1259;60323;-57
2024/02/29 06:38:52;;;;;;;11.40;2.10;;;;;;;3.87;100.00;101031.84;105980;1254;60485;-56
2024/02/29 06:41:20;;;;;;;12.00;1.40;;;;;;;3.98;100.00;101034.66;106045;1260;73905;-57
2024/02/29 06:43:47;;;;;;;9.10;1.70;;;;;;;4.08;100.00;101035.70;105996;1276;66028;-56
2024/02/29 06:46:14;;;;;;;16.70;3.10;;;;;;;4.19;100.00;101036.94;106006;1260;71254;-56
2024/02/29 06:48:41;;;;;;;12.20;2.60;;;;;;;4.27;100.00;101036.39;105972;1257;60399;-56
2024/02/29 06:51:09;;;;;;;13.70;2.60;;;;;;;4.35;100.00;101038.67;105981;1254;60858;-56
2024/02/29 06:53:36;;;;;;;13.10;2.70;;;;;;;4.40;100.00;101037.42;105955;1259;72659;-57
2024/02/29 06:56:04;;;;;;;9.20;2.20;;;;;;;4.43;100.00;101031.70;106010;1254;65777;-57
2024/02/29 06:58:32;;;;;;;10.30;1.80;;;;;;;4.45;100.00;101036.52;105869;1256;72740;-57
2024/02/29 07:01:00;;;;;;;10.80;2.10;;;;;;;4.48;100.00;101036.87;106198;1259;60533;-56
2024/02/29 07:03:29;;;;;;;12.50;1.40;;;;;;;4.51;100.00;101036.14;105982;1254;60453;-56
2024/02/29 07:05:56;;;;;;;11.00;1.80;;;;;;;4.58;100.00;101033.27;105992;1259;74209;-57
2024/02/29 07:08:23;;;;;;;12.30;2.20;;;;;;;4.63;100.00;101026.85;105943;1262;67440;-57
2024/02/29 07:10:51;;;;;;;11.00;1.20;;;;;;;4.67;100.00;101030.21;105942;1257;72648;-56
2024/02/29 07:13:18;;;;;;;14.00;2.10;;;;;;;4.73;100.00;101031.80;106199;1259;60435;-56
2024/02/29 07:15:46;;;;;;;7.70;1.40;;;;;;;4.80;100.00;101032.46;106452;1256;61413;-58
2024/02/29 07:18:14;;;;;;;8.30;1.70;;;;;;;4.88;100.00;101034.56;106144;1257;74484;-57
2024/02/29 07:20:41;;;;;;;13.10;1.80;;;;;;;4.96;100.00;101040.22;106026;1270;66431;-57
2024/02/29 07:23:12;;;;;;;13.80;1.50;;;;;;;5.03;100.00;101030.58;106049;1259;72852;-58
2024/02/29 07:25:39;;;;;;;9.80;1.50;;;;;;;5.11;100.00;101029.10;106027;1261;61228;-57
2024/02/29 07:28:06;;;;;;;12.00;1.20;;;;;;;5.16;100.00;101032.30;105962;1260;59833;-57
2024/02/29 07:30:34;;;;;;;9.00;1.90;;;;;;;5.21;100.00;101031.54;106018;1259;74438;-58
2024/02/29 07:33:01;;;;;;;12.30;1.30;;;;;;;5.27;100.00;101033.45;106082;1259;65532;-58
2024/02/29 07:35:31;;;;;;;14.50;1.60;;;;;;;5.32;100.00;101032.02;106183;1259;73701;-57
2024/02/29 07:37:58;;;;;;;5.40;1.30;;;;;;;5.36;100.00;101035.18;105910;1254;60585;-57
2024/02/29 07:40:25;;;;;;;7.90;1.50;;;;;;;5.42;100.00;101034.08;106010;1254;60466;-58
2024/02/29 07:42:53;;;;;;;13.00;1.40;;;;;;;5.48;100.00;101036.34;105984;1254;74300;-58
2024/02/29 07:45:20;;;;;;;3.10;1.20;;;;;;;5.55;100.00;101043.77;105986;1254;67149;-58
2024/02/29 07:47:47;;;;;;;12.30;1.60;;;;;;;5.62;100.00;101045.67;106062;1259;70058;-58
2024/02/29 07:50:15;;;;;;;11.40;1.50;;;;;;;5.69;100.00;101047.75;105919;1254;60553;-58
2024/02/29 07:52:42;;;;;;;10.50;1.40;;;;;;;5.75;100.00;101045.93;105962;1254;60521;-58
2024/02/29 07:55:13;;;;;;;6.90;1.50;;;;;;;5.81;100.00;101049.79;106048;1254;73840;-58
2024/02/29 07:57:41;;;;;;;9.90;1.50;;;;;;;5.87;100.00;101044.59;106077;1257;65574;-58
2024/02/29 08:00:12;;;;;;;5.60;1.30;;;;;;;5.94;100.00;101048.83;106128;1259;71386;-58
2024/02/29 08:02:43;;;;;;;11.10;2.20;;;;;;;6.03;100.00;101048.21;106033;1254;60447;-58
2024/02/29 08:05:10;;;;;;;9.40;1.50;;;;;;;6.10;100.00;101052.77;106148;1255;60495;-59
2024/02/29 08:07:38;;;;;;;7.90;2.10;;;;;;;6.18;100.00;101048.25;105955;1259;73959;-58
2024/02/29 08:10:06;;;;;;;4.70;1.10;;;;;;;6.24;100.00;101054.42;105984;1259;67473;-58
2024/02/29 08:12:33;;;;;;;8.10;1.60;;;;;;;6.30;100.00;101056.86;106237;1260;72722;-57
2024/02/29 08:15:01;;;;;;;12.30;1.40;;;;;;;6.37;100.00;101055.55;105907;1260;60493;-58
2024/02/29 08:17:28;;;;;;;11.40;1.80;;;;;;;6.45;100.00;101057.59;106034;1272;60311;-57
2024/02/29 08:19:56;;;;;;;12.00;2.00;;;;;;;6.51;100.00;101055.73;106803;1254;73117;-58
2024/02/29 08:22:23;;;;;;;13.40;1.90;;;;;;;6.60;100.00;101053.68;106013;1259;66970;-58
2024/02/29 08:24:52;;;;;;;9.10;1.50;;;;;;;6.69;100.00;101053.58;108840;1254;71120;-56
2024/02/29 08:27:19;;;;;;;5.10;1.20;;;;;;;6.77;100.00;101057.23;108959;1254;58385;-59
2024/02/29 08:29:46;;;;;;;10.10;1.20;;;;;;;6.85;100.00;101054.80;108853;1254;60553;-57
2024/02/29 08:32:14;;;;;;;8.10;1.50;;;;;;;6.95;100.00;101056.46;108997;1253;72496;-57
2024/02/29 08:34:42;;;;;;;11.70;1.50;;;;;;;7.04;100.00;101055.98;109179;1254;66248;-57
2024/02/29 08:37:10;;;;;;;5.10;1.30;;;;;;;7.13;100.00;101054.44;108909;1257;72717;-57
2024/02/29 08:39:40;;;;;;;7.10;1.90;;;;;;;7.23;100.00;101052.16;108930;1259;59296;-57
2024/02/29 08:42:11;;;;;;;14.30;1.70;;;;;;;7.32;100.00;101050.06;108918;1254;59111;-56
2024/02/29 08:44:42;;;;;;;6.80;2.40;;;;;;;7.40;100.00;101055.13;109085;1256;73885;-57
2024/02/29 08:47:10;;;;;;;10.40;1.40;;;;;;;7.50;100.00;101061.05;108966;1253;66988;-56
2024/02/29 08:49:38;;;;;;;17.40;8.60;;;;;;;7.60;100.00;101058.58;109088;1257;73120;-57
2024/02/29 08:52:07;;;;;;;43.20;24.90;;;;;;;7.70;100.00;101059.67;108950;1254;58194;-57
2024/02/29 08:54:36;;;;;;;109.20;76.40;;;;;;;7.80;100.00;101062.73;109202;1253;58848;-57
2024/02/29 08:57:04;;;;;;;56.50;33.10;;;;;;;7.89;100.00;101064.52;108848;1253;73929;-58
2024/02/29 08:59:32;;;;;;;60.30;38.50;;;;;;;7.97;100.00;101066.18;109025;1254;65558;-57
2024/02/29 09:02:04;;;;;;;160.50;108.60;;;;;;;8.06;100.00;101065.67;109100;1254;73249;-57
2024/02/29 09:04:31;;;;;;;44.10;26.70;;;;;;;8.14;100.00;101069.84;108854;1259;58148;-57
2024/02/29 09:07:00;;;;;;;19.00;4.10;;;;;;;8.21;100.00;101067.74;106106;1260;62191;-58
2024/02/29 09:09:28;;;;;;;10.80;4.60;;;;;;;8.28;100.00;101066.18;106009;1254;73781;-59
2024/02/29 09:11:56;;;;;;;13.40;1.90;;;;;;;8.36;100.00;101072.34;106048;1259;66185;-58
2024/02/29 09:14:23;;;;;;;22.40;7.20;;;;;;;8.43;100.00;101074.53;106535;1256;71270;-57
2024/02/29 09:16:50;;;;;;;15.90;4.90;;;;;;;8.49;100.00;101073.87;106089;1259;60495;-58
2024/02/29 09:19:18;;;;;;;7.70;3.00;;;;;;;8.57;100.00;101079.29;105981;1262;61452;-57
2024/02/29 09:21:45;;;;;;;9.20;2.50;;;;;;;8.63;100.00;101081.30;106089;1260;73077;-57
2024/02/29 09:24:12;;;;;;;8.40;1.70;;;;;;;8.68;100.00;101079.21;106040;1259;67795;-58
2024/02/29 09:26:42;;;;;;;17.90;3.40;;;;;;;8.71;100.00;101078.82;106393;1259;73128;-59
2024/02/29 09:29:09;;;;;;;13.20;2.00;;;;;;;8.72;100.00;101072.72;106140;1259;60470;-59
2024/02/29 09:31:37;;;;;;;20.80;8.10;;;;;;;8.73;100.00;101077.17;106127;1254;60537;-58
2024/02/29 09:34:04;;;;;;;5.60;1.60;;;;;;;8.76;100.00;101080.16;106529;1259;72501;-58
2024/02/29 09:36:32;;;;;;;13.90;3.80;;;;;;;8.79;100.00;101083.30;106107;1254;65809;-59
2024/02/29 09:39:00;;;;;;;23.60;14.50;;;;;;;8.84;100.00;101085.36;106067;1254;75636;-59
2024/02/29 09:41:27;;;;;;;23.30;8.40;;;;;;;8.90;100.00;101084.53;106065;1259;61032;-59
2024/02/29 09:44:15;;;;;;;16.30;2.50;;;;;;;8.97;100.00;101086.70;106047;1260;60710;-59
2024/02/29 09:46:46;;;;;;;20.20;9.60;;;;;;;9.05;100.00;101087.80;106722;1254;73811;-59
2024/02/29 09:49:14;;;;;;;22.10;10.80;;;;;;;9.10;100.00;101089.83;106038;1259;69817;-57
2024/02/29 09:51:43;;;;;;;19.40;5.70;;;;;;;9.15;100.00;101089.02;106281;1257;70766;-57
2024/02/29 09:54:20;;;;;;;16.10;7.30;;;;;;;9.19;100.00;101083.20;106018;1259;60429;-58
2024/02/29 09:56:47;;;;;;;16.20;8.50;;;;;;;9.24;100.00;101081.66;105905;1252;60546;-57
2024/02/29 09:59:16;;;;;;;8.20;3.30;;;;;;;9.26;100.00;101082.32;105967;1258;72009;-57
2024/02/29 10:01:44;;;;;;;19.00;11.10;;;;;;;9.31;100.00;101084.37;107585;1253;69297;-58
2024/02/29 10:04:11;;;;;;;11.80;4.70;;;;;;;9.36;100.00;101085.88;105983;1266;72684;-58
2024/02/29 10:06:39;;;;;;;27.60;9.50;;;;;;;9.39;100.00;101084.89;106007;1253;60415;-58
2024/02/29 10:09:06;;;;;;;15.50;6.30;;;;;;;9.44;100.00;101086.94;106097;1259;61074;-58
2024/02/29 10:11:39;;;;;;;16.90;6.80;;;;;;;9.48;100.00;101084.16;106067;1254;73920;-57
2024/02/29 10:14:25;;;;;;;13.40;4.80;;;;;;;9.54;100.00;101085.83;105969;1256;66976;-58
2024/02/29 10:16:53;;;;;;;22.30;10.50;;;;;;;9.59;100.00;101089.65;106076;1259;71490;-56
2024/02/29 10:19:21;;;;;;;27.50;12.00;;;;;;;9.63;100.00;101088.29;106870;1259;61225;-58
2024/02/29 10:21:50;;;;;;;10.40;3.90;;;;;;;9.65;100.00;101088.78;106928;1258;60553;-58
2024/02/29 10:24:21;;;;;;;9.40;3.40;;;;;;;9.68;100.00;101089.98;108199;1259;74192;-58
2024/02/29 10:26:49;;;;;;;7.10;3.00;;;;;;;9.72;100.00;101092.58;106130;1260;65332;-59
2024/02/29 10:29:17;;;;;;;9.20;3.30;;;;;;;9.75;100.00;101091.59;106205;1253;71444;-57
2024/02/29 10:31:44;;;;;;;12.30;5.10;;;;;;;9.79;100.00;101092.38;106067;1259;60521;-58
2024/02/29 10:34:12;;;;;;;9.10;1.90;;;;;;;9.81;100.00;101087.67;106018;1260;62036;-59
2024/02/29 10:36:40;;;;;;;8.60;2.50;;;;;;;9.85;100.00;101082.94;107154;1259;71717;-59
2024/02/29 10:39:08;;;;;;;8.10;1.40;;;;;;;9.88;100.00;101077.66;106036;1259;65766;-59
2024/02/29 10:41:36;;;;;;;8.00;1.60;;;;;;;9.92;100.00;101070.95;106165;1261;71658;-57
2024/02/29 10:44:04;;;;;;;8.30;1.50;;;;;;;9.94;100.00;101067.85;106031;1254;61249;-58
2024/02/29 10:46:32;;;;;;;5.80;1.20;;;;;;;9.94;100.00;101070.70;106064;1259;60672;-59
2024/02/29 10:49:03;;;;;;;12.40;2.80;;;;;;;9.96;100.00;101065.08;105987;1256;73350;-58
2024/02/29 10:51:44;;;;;;;9.80;2.90;;;;;;;9.98;100.00;101060.91;108613;1260;65959;-58
2024/02/29 10:54:20;;;;;;;7.40;1.50;;;;;;;10.02;100.00;101064.41;106315;1259;73712;-57
2024/02/29 10:56:48;;;;;;;7.20;2.00;;;;;;;10.06;100.00;101065.73;106040;1260;60495;-57
2024/02/29 10:59:17;;;;;;;6.60;1.70;;;;;;;10.08;100.00;101065.68;106155;1257;60556;-58
2024/02/29 11:01:45;;;;;;;7.20;1.70;;;;;;;10.09;100.00;101071.75;106004;1259;74276;-57
2024/02/29 11:04:14;;;;;;;13.30;3.10;;;;;;;10.12;100.00;101069.35;105971;1259;65685;-57
2024/02/29 11:06:46;;;;;;;6.40;1.60;;;;;;;10.14;100.00;101065.70;108742;1254;72691;-58
2024/02/29 11:09:19;;;;;;;5.90;2.40;;;;;;;10.17;100.00;101067.98;108930;1259;61046;-59
2024/02/29 11:11:48;;;;;;;8.40;2.30;;;;;;;10.20;100.00;101070.05;107867;1259;60633;-58
2024/02/29 11:14:17;;;;;;;15.60;5.40;;;;;;;10.23;100.00;101060.65;105988;1256;73908;-58
2024/02/29 11:16:48;;;;;;;12.80;5.20;;;;;;;10.27;100.00;101062.73;107761;1256;66948;-58